Time;durP1;ratioP1;P1;durP2;ratioP2;P2;SDS_P1;SDS_P2;PMS_P1;PMS_P2;Temp;Humidity;BMP_temperature;BMP_pressure;BME280_temperature;BME280_humidity;BME280_pressure;Samples;Min_cycle;Max_cycle;Signal;HPM_P1;HPM_P2
2021/09/20 00:00:17;;;;;;;13.37;8.70;;;15.50;98.70;;;;;;8267296;28;20625;-77
2021/09/20 00:04:18;;;;;;;10.40;7.90;;;15.40;98.50;;;;;;8266936;28;20296;-77
2021/09/20 00:08:19;;;;;;;9.83;7.60;;;15.50;98.50;;;;;;8271317;28;20935;-77
2021/09/20 00:12:19;;;;;;;14.13;7.00;;;15.50;98.50;;;;;;8267454;28;20574;-77
2021/09/20 00:16:20;;;;;;;14.20;7.47;;;15.50;98.40;;;;;;8266843;28;20510;-77
2021/09/20 00:20:20;;;;;;;10.97;7.73;;;15.40;98.40;;;;;;8267934;28;20173;-77
2021/09/20 00:24:21;;;;;;;10.73;7.90;;;15.40;98.40;;;;;;8268674;28;20237;-77
2021/09/20 00:28:22;;;;;;;9.17;7.73;;;15.40;98.40;;;;;;8270490;28;20237;-77
2021/09/20 00:32:23;;;;;;;9.50;7.23;;;15.40;98.40;;;;;;8267457;28;20189;-77
2021/09/20 00:36:23;;;;;;;9.87;7.10;;;15.30;98.50;;;;;;8266089;28;20772;-77
2021/09/20 00:40:24;;;;;;;11.90;8.20;;;15.30;98.50;;;;;;8267489;28;20514;-76
2021/09/20 00:44:25;;;;;;;9.63;8.47;;;15.30;98.60;;;;;;8270839;28;20235;-76
2021/09/20 00:48:25;;;;;;;9.10;7.37;;;15.30;98.50;;;;;;8255141;28;20664;-77
2021/09/20 00:52:26;;;;;;;9.37;8.00;;;15.30;98.60;;;;;;8272357;28;20565;-77
2021/09/20 00:56:28;;;;;;;8.80;7.10;;;15.30;98.80;;;;;;8271411;28;20175;-77
2021/09/20 01:00:29;;;;;;;11.83;7.90;;;15.30;98.80;;;;;;8272254;28;20162;-76
2021/09/20 01:04:29;;;;;;;10.87;8.03;;;15.20;98.90;;;;;;8258993;23;20547;-76
2021/09/20 01:08:30;;;;;;;13.47;8.40;;;15.20;99.20;;;;;;8240453;28;20280;-75
2021/09/20 01:12:31;;;;;;;16.97;9.43;;;15.20;99.20;;;;;;8244122;28;20211;-76
2021/09/20 01:16:32;;;;;;;11.87;8.50;;;15.10;99.20;;;;;;8272113;28;20268;-76
2021/09/20 01:20:32;;;;;;;7.67;6.87;;;15.10;99.20;;;;;;8243742;28;20232;-76
2021/09/20 01:24:33;;;;;;;12.27;7.47;;;15.00;99.20;;;;;;8239122;28;20280;-76
2021/09/20 01:28:34;;;;;;;12.60;8.67;;;14.90;99.30;;;;;;8239818;28;20292;-76
2021/09/20 01:32:34;;;;;;;13.77;8.07;;;14.90;99.40;;;;;;8240039;28;20189;-76
2021/09/20 01:36:35;;;;;;;12.67;8.73;;;14.80;99.40;;;;;;8239266;28;20209;-76
2021/09/20 01:40:36;;;;;;;10.07;7.83;;;14.80;99.50;;;;;;8239840;28;20195;-75
2021/09/20 01:44:37;;;;;;;10.03;7.80;;;14.70;99.60;;;;;;8239389;28;20174;-76
2021/09/20 01:48:37;;;;;;;10.57;8.63;;;14.60;99.80;;;;;;8253500;28;20575;-75
2021/09/20 01:52:39;;;;;;;11.90;9.43;;;14.50;99.90;;;;;;8271847;28;20412;-75
2021/09/20 01:56:41;;;;;;;10.13;7.97;;;14.40;99.90;;;;;;8271881;28;20652;-75
2021/09/20 02:00:43;;;;;;;15.43;9.97;;;14.30;99.90;;;;;;8271422;28;20542;-76
2021/09/20 02:04:44;;;;;;;10.90;7.70;;;14.20;99.90;;;;;;8286690;28;20496;-76
2021/09/20 02:08:45;;;;;;;12.97;7.77;;;14.20;99.90;;;;;;8270189;28;20497;-76
2021/09/20 02:12:45;;;;;;;12.93;8.20;;;14.10;99.90;;;;;;8256958;28;20585;-76
2021/09/20 02:16:46;;;;;;;10.80;8.10;;;14.10;99.90;;;;;;8239407;28;20240;-76
2021/09/20 02:20:47;;;;;;;13.33;8.60;;;14.00;99.90;;;;;;8221603;28;20192;-76
2021/09/20 02:24:47;;;;;;;11.07;8.37;;;14.00;99.90;;;;;;8236959;28;20186;-76
2021/09/20 02:28:48;;;;;;;11.53;8.30;;;14.00;99.90;;;;;;8237251;28;20189;-76
2021/09/20 02:32:49;;;;;;;14.17;8.87;;;14.00;99.90;;;;;;8238762;28;20188;-76
2021/09/20 02:36:49;;;;;;;8.63;7.63;;;14.10;99.90;;;;;;8236929;28;20205;-76
2021/09/20 02:40:50;;;;;;;11.53;8.87;;;14.10;99.90;;;;;;8237782;28;20194;-76
2021/09/20 02:44:50;;;;;;;9.40;8.50;;;14.20;99.90;;;;;;8237174;28;20178;-75
2021/09/20 02:48:51;;;;;;;11.67;8.40;;;14.30;99.90;;;;;;8235981;28;20188;-75
2021/09/20 02:52:52;;;;;;;10.20;8.47;;;14.30;99.90;;;;;;8251654;28;20568;-75
2021/09/20 02:56:52;;;;;;;10.10;7.53;;;14.20;99.90;;;;;;8268216;28;20236;-76
2021/09/20 03:00:53;;;;;;;9.90;7.67;;;14.20;99.90;;;;;;8269791;28;20601;-76
2021/09/20 03:04:53;;;;;;;11.10;8.53;;;14.20;99.90;;;;;;8266121;28;20301;-76
2021/09/20 03:08:54;;;;;;;9.77;7.27;;;14.20;99.90;;;;;;8269327;28;20195;-76
2021/09/20 03:12:55;;;;;;;10.53;7.07;;;14.20;99.90;;;;;;8269332;28;20174;-76
2021/09/20 03:16:56;;;;;;;8.37;6.93;;;14.20;99.90;;;;;;8251448;28;20266;-75
2021/09/20 03:20:56;;;;;;;13.00;9.07;;;14.30;99.90;;;;;;8268692;28;20928;-75
2021/09/20 03:24:57;;;;;;;9.93;8.03;;;14.20;99.90;;;;;;8268405;28;20177;-75
2021/09/20 03:29:00;;;;;;;9.40;8.20;;;14.20;99.90;;;;;;8268368;28;20183;-76
2021/09/20 03:33:01;;;;;;;11.87;8.30;;;14.20;99.90;;;;;;8268547;28;20280;-75
2021/09/20 03:37:02;;;;;;;9.60;7.60;;;14.20;99.90;;;;;;8268666;28;20455;-75
2021/09/20 03:41:02;;;;;;;10.77;7.03;;;14.20;99.90;;;;;;8268470;28;20183;-75
2021/09/20 03:45:03;;;;;;;7.50;6.67;;;14.20;99.90;;;;;;8244484;28;20189;-75
2021/09/20 03:49:07;;;;;;;12.17;8.20;;;14.20;99.90;;;;;;8245957;28;20188;-75
2021/09/20 03:53:08;;;;;;;11.23;7.60;;;14.20;99.90;;;;;;8232439;28;20428;-76
2021/09/20 03:57:08;;;;;;;11.00;7.60;;;14.20;99.90;;;;;;8266083;28;20950;-77
2021/09/20 04:01:09;;;;;;;9.60;7.83;;;14.20;99.90;;;;;;8265930;28;20192;-76
2021/09/20 04:05:11;;;;;;;8.93;7.03;;;14.20;99.90;;;;;;8268328;28;20235;-76
2021/09/20 04:09:12;;;;;;;13.40;8.40;;;14.20;99.90;;;;;;8278166;28;20183;-76
2021/09/20 04:13:12;;;;;;;8.70;7.40;;;14.20;99.90;;;;;;8296174;28;20445;-76
2021/09/20 04:17:13;;;;;;;11.17;8.40;;;14.10;99.90;;;;;;8294505;28;20206;-78
2021/09/20 04:21:14;;;;;;;9.70;7.30;;;14.10;99.90;;;;;;8268762;28;20193;-75
2021/09/20 04:25:15;;;;;;;15.03;9.30;;;14.20;99.90;;;;;;8277439;28;20512;-76
2021/09/20 04:29:15;;;;;;;9.93;8.23;;;14.20;99.90;;;;;;8267936;28;20180;-76
2021/09/20 04:33:20;;;;;;;15.43;8.87;;;14.20;99.90;;;;;;8246866;28;20189;-75
2021/09/20 04:37:21;;;;;;;13.37;8.73;;;14.20;99.90;;;;;;8254326;28;20199;-76
2021/09/20 04:41:21;;;;;;;13.13;9.90;;;14.10;99.90;;;;;;8287305;28;20478;-76
2021/09/20 04:45:22;;;;;;;15.43;8.90;;;14.10;99.90;;;;;;8263735;28;20617;-76
2021/09/20 04:49:23;;;;;;;18.03;10.03;;;14.10;99.90;;;;;;8248644;28;20177;-76
2021/09/20 04:53:24;;;;;;;10.20;8.80;;;14.10;99.90;;;;;;8292911;28;20191;-76
2021/09/20 04:57:25;;;;;;;14.60;9.60;;;14.10;99.90;;;;;;8277747;28;20255;-76
2021/09/20 05:01:26;;;;;;;15.83;9.20;;;14.10;99.90;;;;;;8263864;28;20462;-76
2021/09/20 05:05:26;;;;;;;18.47;10.53;;;14.00;99.90;;;;;;8262096;28;20596;-76
2021/09/20 05:09:27;;;;;;;14.33;9.87;;;14.00;99.90;;;;;;8250624;28;20597;-76
2021/09/20 05:13:28;;;;;;;19.57;10.27;;;14.00;99.90;;;;;;8266475;28;20536;-76
2021/09/20 05:17:28;;;;;;;14.53;9.53;;;13.90;99.90;;;;;;8264770;28;20213;-76
2021/09/20 05:21:30;;;;;;;15.10;9.80;;;13.90;99.90;;;;;;8271835;28;20529;-76
2021/09/20 05:25:31;;;;;;;13.13;10.13;;;14.00;99.90;;;;;;8248914;28;20236;-76
2021/09/20 05:29:31;;;;;;;13.60;10.33;;;13.90;99.90;;;;;;8248148;28;20431;-74
2021/09/20 05:33:34;;;;;;;17.73;11.57;;;13.90;99.90;;;;;;8254402;28;20184;-76
2021/09/20 05:37:34;;;;;;;19.20;10.83;;;13.90;99.90;;;;;;8270965;28;20209;-75
2021/09/20 05:41:35;;;;;;;17.20;11.83;;;13.90;99.90;;;;;;8272130;28;20417;-74
2021/09/20 05:45:36;;;;;;;14.23;9.90;;;13.90;99.90;;;;;;8271733;28;20181;-75
2021/09/20 05:49:37;;;;;;;15.47;10.27;;;13.80;99.90;;;;;;8254423;28;20231;-74
2021/09/20 05:53:38;;;;;;;16.07;11.07;;;13.70;99.90;;;;;;8254195;28;20578;-75
2021/09/20 05:57:39;;;;;;;13.73;10.67;;;13.70;99.90;;;;;;8271858;28;20455;-75
2021/09/20 06:01:40;;;;;;;19.40;12.20;;;13.80;99.90;;;;;;8271283;28;20939;-75
2021/09/20 06:05:41;;;;;;;19.90;11.70;;;13.80;99.90;;;;;;8253588;28;20427;-75
2021/09/20 06:09:42;;;;;;;11.87;8.60;;;13.80;99.90;;;;;;8271127;28;20185;-76
2021/09/20 06:13:42;;;;;;;13.70;8.50;;;13.70;99.90;;;;;;8269544;28;20427;-75
2021/09/20 06:17:44;;;;;;;16.17;10.90;;;13.60;99.90;;;;;;8270127;28;20207;-75
2021/09/20 06:21:44;;;;;;;12.60;9.57;;;13.50;99.90;;;;;;8271140;28;20191;-75
2021/09/20 06:25:45;;;;;;;13.33;10.07;;;13.50;99.90;;;;;;8271261;28;20434;-75
2021/09/20 06:29:45;;;;;;;15.30;9.13;;;13.40;99.90;;;;;;8270412;28;20191;-75
2021/09/20 06:33:46;;;;;;;17.13;10.17;;;13.50;99.90;;;;;;8270035;28;20171;-75
2021/09/20 06:37:47;;;;;;;15.57;9.90;;;13.50;99.90;;;;;;8270029;28;20594;-76
2021/09/20 06:41:47;;;;;;;12.63;10.23;;;13.60;99.90;;;;;;8269094;28;20246;-75
2021/09/20 06:45:48;;;;;;;13.97;10.20;;;13.60;99.90;;;;;;8270061;28;20181;-74
2021/09/20 06:49:49;;;;;;;14.57;10.03;;;13.70;99.90;;;;;;8269838;28;20212;-74
2021/09/20 06:53:50;;;;;;;11.93;8.83;;;13.80;99.90;;;;;;8252613;28;20188;-75
2021/09/20 06:57:57;;;;;;;19.27;11.00;;;14.00;99.90;;;;;;8268339;28;20465;-74
2021/09/20 07:01:57;;;;;;;17.93;9.70;;;14.10;99.90;;;;;;8269729;28;20932;-74
2021/09/20 07:05:58;;;;;;;12.40;10.73;;;14.30;99.90;;;;;;8268076;28;20435;-74
2021/09/20 07:09:59;;;;;;;15.37;10.60;;;14.50;99.90;;;;;;8267071;28;20603;-75
2021/09/20 07:13:59;;;;;;;15.33;10.67;;;14.80;99.30;;;;;;8266880;28;20253;-74
2021/09/20 07:18:02;;;;;;;15.10;9.60;;;15.00;98.20;;;;;;8247885;28;20220;-82
2021/09/20 07:22:02;;;;;;;16.13;10.17;;;15.10;97.90;;;;;;8239547;28;20671;-75
2021/09/20 07:26:03;;;;;;;13.73;9.20;;;15.30;97.40;;;;;;8268816;28;20439;-74
2021/09/20 07:30:07;;;;;;;15.00;10.07;;;15.60;96.90;;;;;;8237072;28;20270;-74
2021/09/20 07:34:07;;;;;;;13.17;9.17;;;15.70;96.50;;;;;;8217965;28;20457;-75
2021/09/20 07:38:08;;;;;;;13.37;9.77;;;15.80;96.20;;;;;;8235082;28;20473;-75
2021/09/20 07:42:09;;;;;;;19.00;10.27;;;16.00;95.90;;;;;;8246866;28;20522;-75
2021/09/20 07:46:09;;;;;;;14.60;9.63;;;16.10;95.40;;;;;;8265832;28;20186;-75
2021/09/20 07:50:13;;;;;;;13.00;9.10;;;16.20;95.30;;;;;;8281282;28;20240;-74
2021/09/20 07:54:14;;;;;;;13.77;9.03;;;16.30;95.00;;;;;;8265668;28;20640;-74
2021/09/20 07:58:15;;;;;;;15.80;9.40;;;16.40;94.60;;;;;;8283446;28;20460;-74
2021/09/20 08:02:15;;;;;;;13.20;9.67;;;16.50;94.50;;;;;;8280218;28;20225;-73
2021/09/20 08:06:17;;;;;;;12.87;8.80;;;16.60;94.20;;;;;;8248740;28;20182;-74
2021/09/20 08:10:18;;;;;;;15.23;8.07;;;16.50;94.10;;;;;;8264236;28;20182;-75
2021/09/20 08:14:19;;;;;;;15.53;10.17;;;16.50;94.30;;;;;;8250141;28;20430;-74
2021/09/20 08:18:20;;;;;;;13.73;10.00;;;16.70;94.10;;;;;;8264504;28;20463;-74
2021/09/20 08:22:21;;;;;;;16.20;9.20;;;16.70;94.00;;;;;;8264376;28;20183;-75
2021/09/20 08:26:21;;;;;;;14.80;9.70;;;16.80;93.90;;;;;;8265135;28;20462;-75
2021/09/20 08:30:22;;;;;;;11.00;9.07;;;17.00;93.70;;;;;;8267014;28;20183;-75
2021/09/20 08:34:23;;;;;;;11.47;8.90;;;17.30;93.40;;;;;;8298689;28;20175;-74
2021/09/20 08:38:24;;;;;;;12.97;9.40;;;17.20;92.90;;;;;;8292995;28;20210;-75
2021/09/20 08:42:24;;;;;;;15.13;10.60;;;17.00;93.20;;;;;;8257567;28;20179;-74
2021/09/20 08:46:25;;;;;;;13.23;8.73;;;17.00;93.50;;;;;;8262650;28;20443;-75
2021/09/20 08:50:35;;;;;;;10.47;8.63;;;17.20;93.70;;;;;;8265339;28;20180;-75
2021/09/20 08:54:36;;;;;;;16.30;9.60;;;17.40;93.20;;;;;;8264566;28;20526;-74
2021/09/20 08:58:37;;;;;;;12.70;10.43;;;17.40;93.00;;;;;;8265047;28;20459;-78
2021/09/20 09:02:38;;;;;;;12.63;8.70;;;17.40;92.90;;;;;;8249278;28;20483;-73
2021/09/20 09:06:39;;;;;;;12.80;8.50;;;17.50;93.10;;;;;;8237993;28;20657;-74
2021/09/20 09:10:39;;;;;;;9.00;8.10;;;17.60;92.60;;;;;;8254953;28;20429;-73
2021/09/20 09:14:56;;;;;;;14.63;8.83;;;17.50;92.30;;;;;;8246861;28;20661;-74
2021/09/20 09:18:56;;;;;;;11.97;9.63;;;17.40;92.70;;;;;;8270005;28;20209;-75
2021/09/20 09:23:05;;;;;;;16.37;9.73;;;17.50;92.60;;;;;;8268075;28;20447;-75
2021/09/20 09:27:05;;;;;;;14.83;8.33;;;17.80;92.20;;;;;;8269894;28;20649;-74
2021/09/20 09:31:06;;;;;;;11.23;9.23;;;17.80;92.10;;;;;;8247964;28;20512;-75
2021/09/20 09:35:09;;;;;;;12.93;9.20;;;17.90;91.80;;;;;;8287286;28;20211;-75
2021/09/20 09:39:10;;;;;;;17.80;10.37;;;18.10;91.80;;;;;;8255680;28;20547;-74
2021/09/20 09:43:11;;;;;;;14.90;8.10;;;18.10;91.50;;;;;;8267078;28;20935;-75
2021/09/20 09:47:24;;;;;;;11.47;8.37;;;18.20;91.60;;;;;;8284843;28;20439;-73
2021/09/20 09:51:25;;;;;;;14.67;8.60;;;18.40;91.50;;;;;;8290850;28;20180;-74
2021/09/20 09:55:27;;;;;;;9.70;8.30;;;18.40;91.00;;;;;;8266691;28;20932;-75
2021/09/20 09:59:27;;;;;;;15.97;10.17;;;18.50;91.00;;;;;;8254619;28;20224;-74
2021/09/20 10:03:28;;;;;;;11.63;10.00;;;18.50;90.90;;;;;;8273312;28;20471;-75
2021/09/20 10:07:37;;;;;;;11.37;9.27;;;18.40;90.80;;;;;;8302620;28;20192;-74
2021/09/20 10:11:40;;;;;;;15.10;11.07;;;18.50;91.00;;;;;;8276810;28;20196;-74
2021/09/20 10:15:40;;;;;;;13.30;9.63;;;18.60;90.70;;;;;;8261879;28;20921;-75
2021/09/20 10:19:42;;;;;;;12.53;9.40;;;18.50;90.50;;;;;;8259746;28;20523;-74
2021/09/20 10:23:43;;;;;;;11.47;8.53;;;18.50;90.90;;;;;;8302500;28;20176;-86
2021/09/20 10:27:44;;;;;;;14.23;10.07;;;18.60;90.70;;;;;;8260511;28;20757;-74
2021/09/20 10:31:48;;;;;;;11.60;8.40;;;18.70;90.40;;;;;;8274776;28;20436;-73
2021/09/20 10:35:54;;;;;;;13.77;9.27;;;18.70;90.30;;;;;;8268978;28;20448;-74
2021/09/20 10:40:07;;;;;;;12.80;9.73;;;18.60;90.40;;;;;;8252077;28;20429;-74
2021/09/20 10:44:10;;;;;;;11.37;9.13;;;18.60;90.50;;;;;;8268312;28;20443;-74
2021/09/20 10:48:19;;;;;;;16.67;9.97;;;18.60;90.50;;;;;;8268763;28;20801;-75
2021/09/20 10:52:21;;;;;;;16.27;10.77;;;18.70;90.60;;;;;;8253608;28;20520;-75
2021/09/20 10:56:22;;;;;;;11.87;9.57;;;18.70;90.50;;;;;;8235812;28;20476;-75
2021/09/20 11:00:24;;;;;;;12.63;10.23;;;18.80;90.50;;;;;;8237939;28;20744;-75
2021/09/20 11:04:31;;;;;;;22.93;10.03;;;18.90;90.20;;;;;;8237985;28;20462;-75
2021/09/20 11:08:31;;;;;;;12.27;9.93;;;19.00;90.00;;;;;;8220254;28;20434;-75
2021/09/20 11:12:37;;;;;;;12.67;9.40;;;19.00;90.20;;;;;;8236850;28;20560;-75
2021/09/20 11:17:00;;;;;;;24.73;10.50;;;19.00;89.80;;;;;;8237170;28;20273;-76
2021/09/20 11:21:08;;;;;;;14.67;10.43;;;19.00;90.00;;;;;;8269556;28;20416;-76
2021/09/20 11:25:15;;;;;;;44.07;11.67;;;19.00;90.10;;;;;;8261575;28;20428;-76
2021/09/20 11:29:23;;;;;;;21.47;10.50;;;19.00;89.70;;;;;;8274631;28;20492;-75
2021/09/20 11:33:57;;;;;;;13.83;9.70;;;19.00;89.40;;;;;;8238511;28;20429;-76
2021/09/20 11:38:01;;;;;;;14.23;10.00;;;18.90;89.80;;;;;;8237416;28;20992;-76
2021/09/20 11:42:01;;;;;;;14.60;11.43;;;18.90;89.80;;;;;;8266003;28;20433;-76
2021/09/20 11:46:02;;;;;;;13.20;8.13;;;19.00;89.90;;;;;;8268866;28;20416;-75
2021/09/20 11:50:13;;;;;;;14.13;9.63;;;19.10;89.40;;;;;;8260997;28;20536;-74
2021/09/20 11:54:33;;;;;;;12.30;9.43;;;19.20;88.70;;;;;;8265115;28;20489;-76
2021/09/20 11:58:34;;;;;;;16.70;9.63;;;19.30;88.40;;;;;;8255154;28;20468;-74
2021/09/20 12:02:39;;;;;;;14.00;10.47;;;19.40;87.60;;;;;;8262151;28;20496;-76
2021/09/20 12:06:40;;;;;;;16.30;11.40;;;19.40;87.20;;;;;;8256147;28;20525;-76
2021/09/20 12:10:42;;;;;;;16.50;9.83;;;19.40;87.40;;;;;;8259222;28;20434;-75
2021/09/20 12:14:58;;;;;;;13.47;10.00;;;19.90;87.20;;;;;;8266139;28;20328;-74
2021/09/20 12:18:58;;;;;;;13.73;9.97;;;20.60;86.30;;;;;;8270129;28;20462;-74
2021/09/20 12:23:02;;;;;;;12.57;10.87;;;21.00;84.10;;;;;;8269240;28;20807;-77
2021/09/20 12:27:05;;;;;;;13.63;10.40;;;21.40;82.90;;;;;;8266942;28;20192;-75
2021/09/20 12:31:19;;;;;;;16.17;9.10;;;21.60;82.60;;;;;;8244710;28;20530;-75
2021/09/20 12:35:29;;;;;;;13.23;8.97;;;22.00;82.00;;;;;;8260014;28;20823;-76
2021/09/20 12:39:32;;;;;;;11.83;10.03;;;22.30;79.70;;;;;;8267957;28;20450;-75
2021/09/20 12:43:33;;;;;;;13.10;9.70;;;22.10;80.50;;;;;;8270015;28;20489;-76
2021/09/20 12:47:34;;;;;;;12.57;10.90;;;21.80;80.50;;;;;;8290231;28;20422;-76
2021/09/20 12:51:38;;;;;;;10.40;8.87;;;21.70;80.70;;;;;;8291117;28;20577;-76
2021/09/20 12:55:40;;;;;;;15.07;10.30;;;21.50;80.40;;;;;;8264761;28;20180;-76
2021/09/20 12:59:41;;;;;;;14.60;11.60;;;21.10;80.90;;;;;;8267101;28;20429;-76
2021/09/20 13:03:42;;;;;;;13.87;10.10;;;20.90;81.60;;;;;;8271439;28;20817;-76
2021/09/20 13:07:43;;;;;;;10.63;9.50;;;20.70;82.20;;;;;;8271366;28;20291;-76
2021/09/20 13:11:44;;;;;;;17.10;10.50;;;20.90;83.80;;;;;;8256815;28;20177;-75
2021/09/20 13:15:45;;;;;;;13.40;9.00;;;21.20;82.40;;;;;;8274265;28;20931;-75
2021/09/20 13:20:03;;;;;;;11.47;10.37;;;21.50;81.60;;;;;;8250435;28;20467;-76
2021/09/20 13:24:05;;;;;;;15.97;9.13;;;21.30;80.70;;;;;;8280059;28;20451;-76
2021/09/20 13:28:17;;;;;;;10.63;9.40;;;21.40;82.70;;;;;;8259737;28;20829;-75
2021/09/20 13:32:18;;;;;;;9.93;8.90;;;21.50;81.60;;;;;;8262887;28;20522;-75
2021/09/20 13:36:18;;;;;;;13.30;9.70;;;21.80;81.30;;;;;;8267403;28;20475;-75
2021/09/20 13:40:19;;;;;;;12.30;9.70;;;21.80;79.70;;;;;;8270088;28;20185;-75
2021/09/20 13:44:20;;;;;;;10.60;9.10;;;21.60;79.90;;;;;;8269748;28;20268;-75
2021/09/20 13:48:21;;;;;;;10.10;8.80;;;21.60;80.80;;;;;;8271877;28;20471;-75
2021/09/20 13:52:22;;;;;;;13.83;9.17;;;21.50;80.30;;;;;;8227221;28;20257;-75
2021/09/20 13:56:22;;;;;;;12.20;9.37;;;21.30;79.60;;;;;;8240181;28;20542;-76
2021/09/20 14:00:23;;;;;;;13.00;10.70;;;21.00;80.20;;;;;;8221565;28;20240;-76
2021/09/20 14:04:24;;;;;;;9.10;8.13;;;20.90;81.50;;;;;;8263629;28;20224;-75
2021/09/20 14:08:26;;;;;;;16.63;8.90;;;21.00;82.10;;;;;;8268184;28;20193;-76
2021/09/20 14:12:26;;;;;;;10.80;8.57;;;21.10;81.40;;;;;;8261821;28;20217;-77
2021/09/20 14:16:31;;;;;;;12.87;9.27;;;21.10;81.10;;;;;;8283448;28;20468;-75
2021/09/20 14:20:32;;;;;;;10.73;9.37;;;21.10;81.30;;;;;;8250975;28;20268;-74
2021/09/20 14:24:34;;;;;;;12.43;8.90;;;21.10;80.90;;;;;;8265809;28;20429;-75
2021/09/20 14:28:35;;;;;;;12.53;10.43;;;21.20;81.20;;;;;;8289238;28;20415;-75
2021/09/20 14:32:36;;;;;;;12.63;9.10;;;21.20;81.00;;;;;;8264808;28;20439;-76
2021/09/20 14:36:37;;;;;;;13.30;8.70;;;21.10;81.40;;;;;;8250701;28;20219;-75
2021/09/20 14:40:38;;;;;;;12.07;10.07;;;21.10;80.40;;;;;;8267278;28;20433;-75
2021/09/20 14:44:39;;;;;;;10.90;9.63;;;21.00;81.00;;;;;;8270291;28;20185;-75
2021/09/20 14:48:40;;;;;;;14.13;9.97;;;20.70;81.30;;;;;;8268403;28;20420;-75
2021/09/20 14:52:42;;;;;;;13.87;9.60;;;20.60;82.70;;;;;;8252054;28;20192;-76
2021/09/20 14:56:43;;;;;;;9.90;8.63;;;20.60;81.90;;;;;;8284719;28;20263;-75
2021/09/20 15:00:44;;;;;;;10.50;8.77;;;20.50;82.00;;;;;;8268770;28;20401;-75
2021/09/20 15:04:45;;;;;;;11.10;8.70;;;20.30;82.00;;;;;;8285113;28;20251;-75
2021/09/20 15:08:46;;;;;;;13.17;9.43;;;20.10;82.20;;;;;;8268519;28;20923;-75
2021/09/20 15:12:47;;;;;;;13.13;9.53;;;20.10;82.70;;;;;;8284158;28;20185;-74
2021/09/20 15:16:47;;;;;;;10.27;8.77;;;20.10;82.90;;;;;;8269551;28;20209;-75
2021/09/20 15:20:48;;;;;;;9.60;8.57;;;20.00;82.50;;;;;;8270641;28;20209;-74
2021/09/20 15:24:49;;;;;;;12.37;8.70;;;20.00;81.60;;;;;;8255127;28;20532;-74
2021/09/20 15:28:49;;;;;;;11.67;8.30;;;19.70;81.80;;;;;;8267702;28;20292;-75
2021/09/20 15:32:50;;;;;;;10.83;8.20;;;19.60;82.60;;;;;;8266765;28;20194;-76
2021/09/20 15:36:51;;;;;;;11.90;7.93;;;19.70;83.20;;;;;;8267087;28;20216;-75
2021/09/20 15:40:55;;;;;;;12.27;8.20;;;19.70;82.20;;;;;;8266697;28;20487;-76
2021/09/20 15:44:57;;;;;;;12.10;8.30;;;19.60;83.20;;;;;;8264198;28;20181;-75
2021/09/20 15:48:58;;;;;;;8.47;7.70;;;19.50;83.50;;;;;;8280781;28;20508;-75
2021/09/20 15:52:58;;;;;;;10.33;8.60;;;19.60;83.40;;;;;;8265130;28;20441;-74
2021/09/20 15:56:59;;;;;;;7.97;7.00;;;19.60;83.50;;;;;;8265817;28;20219;-75
2021/09/20 16:01:00;;;;;;;8.53;6.80;;;19.50;83.10;;;;;;8265800;28;20268;-73
2021/09/20 16:05:01;;;;;;;8.30;7.50;;;19.50;82.80;;;;;;8263187;28;20480;-75
2021/09/20 16:09:02;;;;;;;9.50;7.23;;;19.40;82.90;;;;;;8268987;28;20185;-75
2021/09/20 16:13:03;;;;;;;8.33;7.53;;;19.60;84.00;;;;;;8279852;28;20689;-75
2021/09/20 16:17:04;;;;;;;9.83;8.40;;;19.60;83.70;;;;;;8267657;28;20485;-75
2021/09/20 16:21:05;;;;;;;10.50;7.60;;;19.60;83.30;;;;;;8264558;28;20847;-75
2021/09/20 16:25:06;;;;;;;8.50;7.57;;;19.50;83.50;;;;;;8281436;28;20177;-76
2021/09/20 16:29:06;;;;;;;9.53;8.47;;;19.40;83.90;;;;;;8281834;28;20193;-75
2021/09/20 16:33:07;;;;;;;15.93;9.07;;;19.30;83.90;;;;;;8263340;28;20787;-75
2021/09/20 16:37:09;;;;;;;10.37;8.00;;;19.20;84.30;;;;;;8267820;28;20209;-73
2021/09/20 16:41:10;;;;;;;8.10;6.90;;;19.20;84.90;;;;;;8245051;28;20648;-75
2021/09/20 16:45:12;;;;;;;9.43;7.47;;;19.20;84.10;;;;;;8267102;28;20441;-76
2021/09/20 16:49:13;;;;;;;10.57;7.90;;;19.10;84.40;;;;;;8265686;28;20190;-75
2021/09/20 16:53:14;;;;;;;9.50;8.20;;;19.10;84.80;;;;;;8266628;28;20904;-75
2021/09/20 16:57:14;;;;;;;15.63;8.47;;;18.90;85.40;;;;;;8249334;28;20220;-75
2021/09/20 17:01:16;;;;;;;7.70;7.00;;;18.90;85.90;;;;;;8282732;28;20647;-75
2021/09/20 17:05:16;;;;;;;13.30;7.67;;;18.70;85.70;;;;;;8219996;28;20316;-75
2021/09/20 17:09:17;;;;;;;8.07;7.30;;;18.60;86.30;;;;;;8234777;28;20424;-74
2021/09/20 17:13:18;;;;;;;9.13;8.10;;;18.50;86.20;;;;;;8234183;28;20178;-74
2021/09/20 17:17:19;;;;;;;9.17;7.30;;;18.50;86.40;;;;;;8235044;28;20205;-76
2021/09/20 17:21:22;;;;;;;8.23;7.43;;;18.40;86.50;;;;;;8234318;28;20424;-81
2021/09/20 17:25:23;;;;;;;10.10;7.73;;;18.30;86.70;;;;;;8188697;29;20181;-75
2021/09/20 17:29:24;;;;;;;11.03;7.80;;;18.30;87.70;;;;;;8208303;29;20436;-75
2021/09/20 17:33:25;;;;;;;10.23;8.50;;;18.20;88.10;;;;;;8207600;29;20213;-75
2021/09/20 17:37:26;;;;;;;9.20;8.13;;;18.20;88.50;;;;;;8226452;28;20240;-76
2021/09/20 17:41:26;;;;;;;9.93;7.50;;;18.20;89.40;;;;;;8254756;28;21013;-74
2021/09/20 17:45:28;;;;;;;12.37;8.37;;;18.10;90.30;;;;;;8254770;28;20192;-75
2021/09/20 17:49:29;;;;;;;9.47;7.57;;;18.10;90.00;;;;;;8254666;28;20200;-76
2021/09/20 17:53:31;;;;;;;10.57;9.47;;;18.00;90.30;;;;;;8240047;28;20789;-76
2021/09/20 17:57:31;;;;;;;15.60;10.00;;;18.00;90.30;;;;;;8236043;28;20441;-76
2021/09/20 18:01:32;;;;;;;11.27;8.57;;;18.00;90.40;;;;;;8223398;28;20538;-75
2021/09/20 18:05:34;;;;;;;9.10;7.70;;;18.10;90.70;;;;;;8285437;28;20339;-75
2021/09/20 18:09:34;;;;;;;11.27;8.90;;;17.90;90.40;;;;;;8272208;28;20432;-75
2021/09/20 18:13:35;;;;;;;8.60;6.90;;;17.80;90.50;;;;;;8286622;28;20435;-75
2021/09/20 18:17:36;;;;;;;12.37;8.37;;;17.80;90.80;;;;;;8262200;28;20213;-76
2021/09/20 18:21:37;;;;;;;10.60;8.87;;;17.80;91.30;;;;;;8259206;28;20188;-80
2021/09/20 18:25:37;;;;;;;12.57;9.37;;;17.70;91.70;;;;;;8259801;28;20215;-75
2021/09/20 18:29:38;;;;;;;13.20;9.70;;;17.70;92.00;;;;;;8225696;28;20233;-75
2021/09/20 18:33:39;;;;;;;12.57;9.53;;;17.60;92.00;;;;;;8238269;28;20540;-75
2021/09/20 18:37:40;;;;;;;11.70;9.50;;;17.60;92.00;;;;;;8236981;28;20648;-74
2021/09/20 18:41:42;;;;;;;9.17;7.67;;;17.50;91.60;;;;;;8221030;28;20190;-76
2021/09/20 18:45:43;;;;;;;14.33;9.33;;;17.50;91.50;;;;;;8220036;28;20792;-76
2021/09/20 18:49:44;;;;;;;13.70;10.20;;;17.40;91.50;;;;;;8220516;28;20486;-75
2021/09/20 18:53:46;;;;;;;14.60;9.10;;;17.30;91.60;;;;;;8236481;28;20940;-75
2021/09/20 18:57:48;;;;;;;22.33;10.73;;;17.30;91.70;;;;;;8237716;28;20541;-76
2021/09/20 19:01:48;;;;;;;12.20;9.03;;;17.20;91.90;;;;;;8219956;28;20442;-76
2021/09/20 19:05:49;;;;;;;13.50;10.37;;;17.20;92.20;;;;;;8258210;28;20479;-77
2021/09/20 19:09:50;;;;;;;13.23;8.90;;;17.20;92.10;;;;;;8266983;28;20269;-75
2021/09/20 19:13:52;;;;;;;16.73;10.07;;;17.20;92.10;;;;;;8267988;28;20278;-74
2021/09/20 19:17:55;;;;;;;12.33;9.93;;;17.10;92.00;;;;;;8269031;28;20546;-75
2021/09/20 19:21:56;;;;;;;13.73;10.30;;;17.10;92.00;;;;;;8267175;28;20290;-75
2021/09/20 19:25:58;;;;;;;14.43;10.57;;;17.10;92.00;;;;;;8254152;28;20442;-75
2021/09/20 19:29:58;;;;;;;11.70;9.83;;;17.10;92.00;;;;;;8236722;28;20227;-76
2021/09/20 19:33:59;;;;;;;27.93;9.73;;;17.10;91.90;;;;;;8235770;28;20428;-76
2021/09/20 19:38:02;;;;;;;13.43;9.37;;;17.10;91.80;;;;;;8236585;28;20254;-76
2021/09/20 19:42:02;;;;;;;16.77;10.43;;;17.10;92.30;;;;;;8236662;28;20191;-75
2021/09/20 19:46:06;;;;;;;15.80;10.80;;;17.10;92.70;;;;;;8236081;28;20432;-76
2021/09/20 19:50:10;;;;;;;18.40;10.53;;;17.10;92.40;;;;;;8236966;28;20596;-76
2021/09/20 19:54:11;;;;;;;14.20;9.90;;;17.10;92.90;;;;;;8235680;28;20426;-75
2021/09/20 19:58:12;;;;;;;13.23;9.70;;;17.00;93.20;;;;;;8234736;28;20464;-75
2021/09/20 20:02:12;;;;;;;12.30;9.73;;;17.00;93.50;;;;;;8236764;28;20914;-75
2021/09/20 20:06:15;;;;;;;12.70;9.57;;;17.00;93.50;;;;;;8250550;28;20274;-75
2021/09/20 20:10:16;;;;;;;20.00;10.30;;;17.00;93.30;;;;;;8235422;28;20642;-75
2021/09/20 20:14:16;;;;;;;13.30;9.97;;;17.00;93.10;;;;;;8235130;28;20446;-75
2021/09/20 20:18:18;;;;;;;15.10;11.70;;;16.90;93.30;;;;;;8234759;28;20475;-74
2021/09/20 20:22:20;;;;;;;14.93;10.07;;;16.90;93.30;;;;;;8235070;28;20175;-75
2021/09/20 20:26:24;;;;;;;17.57;12.43;;;16.90;93.20;;;;;;8235168;28;20465;-75
2021/09/20 20:30:24;;;;;;;15.63;11.03;;;16.80;93.30;;;;;;8236171;28;20438;-74
2021/09/20 20:34:25;;;;;;;16.40;10.33;;;16.80;93.40;;;;;;8218327;28;20975;-76
2021/09/20 20:38:26;;;;;;;13.70;9.93;;;16.70;93.50;;;;;;8217992;28;20220;-76